Fort Dodge, Kansas
Current Conditions -  °F | °C
As of 5:52 PM on Sunday 25 Jan 2015 (Local Time) from KDDC Reporting Station
Clear Clear  
Wind Chill: 41°   Ceiling: Unl
Heat Index: 45°   Visibility: 10mi
Dew Point: 19°   Wind: 8mph
Humidity: 36%   Direction: 360°N
Pressure: 30.11"   Gusts: NA
Location:  37.73°N, 99.94°W
Report Text: KDDC 252352Z AUTO 36007KT 10SM CLR 07/M07 A3011 RMK AO2 SLP201 T00721072 10133 20072 53009
Loading
Personal Weather Stations






























Interactive Weather Map New forecast layout! Learn more

10-Day Weather Forecast

Advertisements
Track Severe Weather on mobile